Time;durP1;ratioP1;P1;durP2;ratioP2;P2;SDS_P1;SDS_P2;PMS_P1;PMS_P2;Temp;Humidity;BMP_temperature;BMP_pressure;BME280_temperature;BME280_humidity;BME280_pressure;Samples;Min_cycle;Max_cycle;Signal;HPM_P1;HPM_P2
2023/12/21 00:01:25;;;;;;;;;;;4.00;99.90;;;;;;20930887;28;19909;-79
2023/12/21 00:11:26;;;;;;;;;;;3.90;99.90;;;;;;20908777;28;19913;-79
2023/12/21 00:21:27;;;;;;;;;;;3.70;99.90;;;;;;20926866;28;19920;-79
2023/12/21 00:31:28;;;;;;;;;;;3.70;99.90;;;;;;20905315;28;19919;-79
2023/12/21 00:41:28;;;;;;;;;;;3.70;99.90;;;;;;20937550;28;19913;-79
2023/12/21 00:51:29;;;;;;;;;;;3.70;99.90;;;;;;20910179;28;19952;-79
2023/12/21 01:01:30;;;;;;;;;;;3.70;99.90;;;;;;20941458;28;19909;-79
2023/12/21 01:11:36;;;;;;;;;;;3.80;99.90;;;;;;20922764;28;20373;-79
2023/12/21 01:21:37;;;;;;;;;;;3.80;99.90;;;;;;20946597;28;19919;-77
2023/12/21 01:31:38;;;;;;;;;;;3.80;99.90;;;;;;20941744;28;20412;-79
2023/12/21 01:41:39;;;;;;;;;;;3.80;99.90;;;;;;20923203;28;19908;-79
2023/12/21 01:51:40;;;;;;;;;;;3.70;99.90;;;;;;20943083;28;19919;-79
2023/12/21 02:01:42;;;;;;;;;;;3.70;99.90;;;;;;20943342;28;19920;-78
2023/12/21 02:11:43;;;;;;;;;;;3.60;99.90;;;;;;20917546;28;19919;-78
2023/12/21 02:21:45;;;;;;;;;;;3.70;99.90;;;;;;20942187;28;19916;-79
2023/12/21 02:31:45;;;;;;;;;;;3.70;99.90;;;;;;20920126;28;19917;-79
2023/12/21 02:41:47;;;;;;;;;;;3.70;99.90;;;;;;20905580;28;19963;-79
2023/12/21 02:51:47;;;;;;;;;;;3.70;99.90;;;;;;20940103;28;19969;-79
2023/12/21 03:01:48;;;;;;;;;;;3.70;99.90;;;;;;20914978;28;19963;-78
2023/12/21 03:11:49;;;;;;;;;;;3.80;99.90;;;;;;20937333;28;19920;-79
2023/12/21 03:21:49;;;;;;;;;;;3.90;99.90;;;;;;20935522;28;20400;-79
2023/12/21 03:31:52;;;;;;;;;;;3.90;99.90;;;;;;20935381;28;19912;-79
2023/12/21 03:41:53;;;;;;;;;;;3.90;99.90;;;;;;20914278;28;19909;-79
2023/12/21 03:51:53;;;;;;;;;;;3.90;99.90;;;;;;20933703;28;19958;-78
2023/12/21 04:01:55;;;;;;;;;;;4.10;99.90;;;;;;20911472;28;19939;-78
2023/12/21 04:11:56;;;;;;;;;;;4.10;99.90;;;;;;20928653;28;19976;-79
2023/12/21 04:21:56;;;;;;;;;;;4.10;99.90;;;;;;20909084;28;19916;-79
2023/12/21 04:31:57;;;;;;;;;;;4.00;99.90;;;;;;20908382;28;19917;-79
2023/12/21 04:41:58;;;;;;;;;;;4.00;99.90;;;;;;20932544;28;20006;-79
2023/12/21 04:51:58;;;;;;;;;;;4.00;99.90;;;;;;20930191;28;20369;-79
2023/12/21 05:01:59;;;;;;;;;;;4.00;99.90;;;;;;20916504;28;19909;-79
2023/12/21 05:12:00;;;;;;;;;;;4.00;99.90;;;;;;20902212;28;19913;-78
2023/12/21 05:22:00;;;;;;;;;;;4.10;99.90;;;;;;20917198;28;19921;-78
2023/12/21 05:32:01;;;;;;;;;;;4.10;99.90;;;;;;20928372;28;19912;-78
2023/12/21 05:42:02;;;;;;;;;;;4.10;99.90;;;;;;20923175;28;19955;-78
2023/12/21 05:52:02;;;;;;;;;;;4.10;99.90;;;;;;20932800;28;19917;-78
2023/12/21 06:02:03;;;;;;;;;;;4.00;99.90;;;;;;20935479;28;19912;-78
2023/12/21 06:12:04;;;;;;;;;;;4.00;99.90;;;;;;20953360;28;19921;-80
2023/12/21 06:22:05;;;;;;;;;;;4.00;99.90;;;;;;20955081;28;19974;-79
2023/12/21 06:32:06;;;;;;;;;;;4.20;99.90;;;;;;20915286;28;19951;-78
2023/12/21 06:42:07;;;;;;;;;;;4.50;99.90;;;;;;20916370;28;19909;-79
2023/12/21 06:52:07;;;;;;;;;;;4.60;99.90;;;;;;20918828;28;19935;-80
2023/12/21 07:02:08;;;;;;;;;;;4.80;99.90;;;;;;20944991;28;19908;-79
2023/12/21 07:12:09;;;;;;;;;;;5.00;99.90;;;;;;20940076;28;19912;-79
2023/12/21 07:22:10;;;;;;;;;;;5.20;99.90;;;;;;20940831;28;20262;-79
2023/12/21 07:32:10;;;;;;;;;;;5.60;99.90;;;;;;20935661;28;20455;-80
2023/12/21 07:42:11;;;;;;;;;;;5.70;99.90;;;;;;20936848;28;19931;-80
2023/12/21 07:52:12;;;;;;;;;;;5.90;99.90;;;;;;20916994;28;19913;-80
2023/12/21 08:02:12;;;;;;;;;;;6.00;99.90;;;;;;20919402;28;19915;-80
2023/12/21 08:12:14;;;;;;;;;;;6.30;99.90;;;;;;20935784;28;19913;-80
2023/12/21 08:22:15;;;;;;;;;;;6.40;99.90;;;;;;20934648;28;19916;-80
2023/12/21 08:32:16;;;;;;;;;;;6.50;99.90;;;;;;20897768;28;20317;-80
2023/12/21 08:42:16;;;;;;;;;;;6.40;99.90;;;;;;20944073;28;19909;-80
2023/12/21 08:52:17;;;;;;;;;;;6.20;99.90;;;;;;20934273;28;19920;-80
2023/12/21 09:02:17;;;;;;;;;;;6.20;99.90;;;;;;20918298;28;19940;-80
2023/12/21 09:12:18;;;;;;;;;;;6.30;99.90;;;;;;20938990;28;19976;-80
2023/12/21 09:22:19;;;;;;;;;;;6.30;99.90;;;;;;20950681;28;19939;-80
2023/12/21 09:32:20;;;;;;;;;;;6.40;99.90;;;;;;20957081;28;19919;-80
2023/12/21 09:42:21;;;;;;;;;;;6.20;99.90;;;;;;20952469;28;19908;-78
2023/12/21 09:52:21;;;;;;;;;;;6.20;99.90;;;;;;20952616;28;19919;-80
2023/12/21 10:02:26;;;;;;;;;;;6.40;99.90;;;;;;20953681;28;20320;-78
2023/12/21 10:12:27;;;;;;;;;;;6.50;99.90;;;;;;20952788;28;19912;-80
2023/12/21 10:22:28;;;;;;;;;;;6.50;99.90;;;;;;20947542;28;19919;-80
2023/12/21 10:32:29;;;;;;;;;;;6.50;99.90;;;;;;20950180;28;20301;-80
2023/12/21 10:42:30;;;;;;;;;;;6.60;99.90;;;;;;20947700;28;19908;-80
2023/12/21 10:52:31;;;;;;;;;;;6.70;99.90;;;;;;20951557;28;19948;-79
2023/12/21 11:02:32;;;;;;;;;;;6.80;99.90;;;;;;20948207;28;20396;-78
2023/12/21 11:12:33;;;;;;;;;;;7.10;99.90;;;;;;20942058;28;19917;-80
2023/12/21 11:22:37;;;;;;;;;;;7.00;99.90;;;;;;20943014;28;19920;-80
2023/12/21 11:32:39;;;;;;;;;;;7.30;99.90;;;;;;20937797;28;19912;-81
2023/12/21 11:42:44;;;;;;;;;;;7.50;99.90;;;;;;20942546;28;19915;-80
2023/12/21 11:52:44;;;;;;;;;;;7.60;99.90;;;;;;20942325;28;19913;-80
2023/12/21 12:02:45;;;;;;;;;;;7.60;99.90;;;;;;20942176;28;20249;-80
2023/12/21 12:12:46;;;;;;;;;;;7.50;99.90;;;;;;20921929;28;19913;-79
2023/12/21 12:22:49;;;;;;;;;;;7.70;99.90;;;;;;20917984;28;19909;-79
2023/12/21 12:32:50;;;;;;;;;;;8.30;99.90;;;;;;20939846;28;19913;-80
2023/12/21 12:42:51;;;;;;;;;;;8.40;99.90;;;;;;20910390;28;19964;-80
2023/12/21 12:52:52;;;;;;;;;;;8.60;99.90;;;;;;20941228;28;19913;-78
2023/12/21 13:02:52;;;;;;;;;;;8.80;99.90;;;;;;20949829;28;19915;-81
2023/12/21 13:12:53;;;;;;;;;;;9.00;99.90;;;;;;20946839;28;19959;-81
2023/12/21 13:22:53;;;;;;;;;;;9.10;99.90;;;;;;20950412;28;19909;-79
2023/12/21 13:32:55;;;;;;;;;;;9.20;99.90;;;;;;20933933;28;19913;-80
2023/12/21 13:42:56;;;;;;;;;;;9.20;99.90;;;;;;20929884;28;19963;-78
2023/12/21 13:52:56;;;;;;;;;;;9.50;99.90;;;;;;20929278;28;19976;-79
2023/12/21 14:02:57;;;;;;;;;;;9.50;99.90;;;;;;20940356;28;19912;-78
2023/12/21 14:13:00;;;;;;;;;;;9.40;99.90;;;;;;20921814;28;19928;-80
2023/12/21 14:23:01;;;;;;;;;;;9.50;99.90;;;;;;20923488;28;19908;-80
2023/12/21 14:33:01;;;;;;;;;;;9.60;99.90;;;;;;20955767;28;19912;-80
2023/12/21 14:43:02;;;;;;;;;;;9.50;99.90;;;;;;20947512;28;19916;-77
2023/12/21 14:53:03;;;;;;;;;;;9.40;99.90;;;;;;20917185;28;19920;-80
2023/12/21 15:03:03;;;;;;;;;;;8.90;99.90;;;;;;20937310;28;19908;-81
2023/12/21 15:13:06;;;;;;;;;;;9.10;99.90;;;;;;20913984;28;19912;-80
2023/12/21 15:23:06;;;;;;;;;;;9.20;99.90;;;;;;20924772;28;19919;-77
2023/12/21 15:33:08;;;;;;;;;;;9.40;99.90;;;;;;20931611;28;19916;-79
2023/12/21 15:43:08;;;;;;;;;;;9.30;99.90;;;;;;20936668;28;20135;-77
2023/12/21 15:53:09;;;;;;;;;;;9.30;99.90;;;;;;20907899;28;19967;-77
2023/12/21 16:03:10;;;;;;;;;;;9.10;99.90;;;;;;20922736;28;20300;-78
2023/12/21 16:13:10;;;;;;;;;;;8.90;99.90;;;;;;20910450;28;19920;-78
2023/12/21 16:23:13;;;;;;;;;;;8.70;99.90;;;;;;20904245;28;19932;-77
2023/12/21 16:33:14;;;;;;;;;;;8.80;99.90;;;;;;20879005;28;19993;-78
2023/12/21 16:43:14;;;;;;;;;;;9.00;99.90;;;;;;20905239;28;20290;-78
2023/12/21 16:53:15;;;;;;;;;;;9.30;99.90;;;;;;20908232;28;19948;-78
2023/12/21 17:03:16;;;;;;;;;;;9.30;99.90;;;;;;20904187;28;20313;-77
2023/12/21 17:13:17;;;;;;;;;;;9.30;99.90;;;;;;20879690;28;20370;-77
2023/12/21 17:23:17;;;;;;;;;;;9.30;99.90;;;;;;20904073;28;19908;-78
2023/12/21 17:33:18;;;;;;;;;;;9.30;99.90;;;;;;20885956;28;20007;-77
2023/12/21 17:43:19;;;;;;;;;;;9.80;99.90;;;;;;20881445;28;19951;-77
2023/12/21 17:53:21;;;;;;;;;;;9.80;99.90;;;;;;20904772;28;19913;-78
2023/12/21 18:03:22;;;;;;;;;;;9.80;99.90;;;;;;20894207;28;19962;-78
2023/12/21 18:13:23;;;;;;;;;;;10.10;99.90;;;;;;20909135;28;19917;-77
2023/12/21 18:23:23;;;;;;;;;;;10.20;99.90;;;;;;20914806;28;19912;-79
2023/12/21 18:33:24;;;;;;;;;;;10.20;99.90;;;;;;20896816;28;19935;-78
2023/12/21 18:43:25;;;;;;;;;;;10.30;99.90;;;;;;20899617;28;20377;-78
2023/12/21 18:53:25;;;;;;;;;;;10.40;99.90;;;;;;20906029;28;19919;-78
2023/12/21 19:03:26;;;;;;;;;;;10.40;99.90;;;;;;20898227;28;19924;-78
2023/12/21 19:13:27;;;;;;;;;;;10.30;99.90;;;;;;20904414;28;20008;-79
2023/12/21 19:23:28;;;;;;;;;;;9.80;99.90;;;;;;20904839;28;19973;-80
2023/12/21 19:33:29;;;;;;;;;;;9.50;99.90;;;;;;20937981;28;20320;-80
2023/12/21 19:43:32;;;;;;;;;;;9.40;99.90;;;;;;20919075;28;20564;-79
2023/12/21 19:53:34;;;;;;;;;;;9.50;99.90;;;;;;20927957;28;20012;-78
2023/12/21 20:03:36;;;;;;;;;;;9.50;99.90;;;;;;20924066;28;19954;-79
2023/12/21 20:13:39;;;;;;;;;;;9.50;99.90;;;;;;20921438;28;19913;-79
2023/12/21 20:23:42;;;;;;;;;;;9.50;99.90;;;;;;20922995;28;19913;-79
2023/12/21 20:33:43;;;;;;;;;;;9.40;99.90;;;;;;20916256;28;19936;-78
2023/12/21 20:43:46;;;;;;;;;;;9.40;99.90;;;;;;20917084;28;20000;-78
2023/12/21 20:53:47;;;;;;;;;;;9.50;99.90;;;;;;20912078;28;19912;-78
2023/12/21 21:03:48;;;;;;;;;;;9.40;99.90;;;;;;20921769;28;19916;-78
2023/12/21 21:13:52;;;;;;;;;;;9.20;99.90;;;;;;20922679;28;19920;-80
2023/12/21 21:23:52;;;;;;;;;;;9.40;99.90;;;;;;20947677;28;19917;-79
2023/12/21 21:33:54;;;;;;;;;;;8.90;99.90;;;;;;20942113;28;20412;-79
2023/12/21 21:43:55;;;;;;;;;;;9.00;99.90;;;;;;20944909;28;19908;-81
2023/12/21 21:53:55;;;;;;;;;;;9.00;99.90;;;;;;20936379;28;20285;-80
2023/12/21 22:03:56;;;;;;;;;;;9.00;99.90;;;;;;20932612;28;19995;-80
2023/12/21 22:13:56;;;;;;;;;;;9.00;99.90;;;;;;20932478;28;19920;-81
2023/12/21 22:23:57;;;;;;;;;;;8.60;99.90;;;;;;20911457;28;20281;-81
2023/12/21 22:33:58;;;;;;;;;;;8.50;99.90;;;;;;20933335;28;19920;-80
2023/12/21 22:43:58;;;;;;;;;;;8.40;99.90;;;;;;20926366;28;19920;-79
2023/12/21 22:53:59;;;;;;;;;;;8.30;99.90;;;;;;20900790;28;19917;-78
2023/12/21 23:04:00;;;;;;;;;;;8.20;99.90;;;;;;20929963;28;19908;-80
2023/12/21 23:14:00;;;;;;;;;;;8.20;99.90;;;;;;20898490;28;19919;-79
2023/12/21 23:24:01;;;;;;;;;;;8.20;99.90;;;;;;20944090;28;19908;-80
2023/12/21 23:34:02;;;;;;;;;;;8.30;99.90;;;;;;20911152;28;19995;-80
2023/12/21 23:44:02;;;;;;;;;;;8.20;99.90;;;;;;20933617;28;20369;-80
2023/12/21 23:54:03;;;;;;;;;;;8.20;99.90;;;;;;20932746;28;19995;-80
